createdAt,value
2022-12-05T00:01:22.839Z,5.55
2022-12-05T00:04:11.156Z,5.07
2022-12-05T00:06:56.599Z,4.75
2022-12-05T00:09:41.998Z,5.00
2022-12-05T00:12:27.524Z,5.55
2022-12-05T00:15:13.381Z,5.85
2022-12-05T00:17:58.653Z,5.30
2022-12-05T00:20:48.794Z,5.40
2022-12-05T00:23:34.251Z,5.05
2022-12-05T00:26:19.766Z,5.05
2022-12-05T00:29:05.495Z,4.88
2022-12-05T00:31:50.888Z,5.43
2022-12-05T00:34:36.373Z,5.60
2022-12-05T00:37:22.268Z,4.80
2022-12-05T00:40:08.354Z,4.13
2022-12-05T00:42:53.886Z,4.20
2022-12-05T00:45:39.149Z,4.47
2022-12-05T00:48:24.594Z,4.65
2022-12-05T00:51:11.651Z,3.90
2022-12-05T00:54:02.232Z,4.47
2022-12-05T00:56:47.428Z,4.30
2022-12-05T00:59:32.880Z,4.85
2022-12-05T01:02:18.265Z,4.25
2022-12-05T01:05:04.201Z,4.32
2022-12-05T01:07:49.779Z,3.63
2022-12-05T01:10:35.193Z,4.78
2022-12-05T01:13:21.315Z,3.80
2022-12-05T01:16:06.968Z,4.05
2022-12-05T01:18:57.238Z,4.15
2022-12-05T01:21:43.577Z,3.58
2022-12-05T01:24:30.318Z,3.90
2022-12-05T01:27:16.187Z,3.47
2022-12-05T01:30:02.350Z,3.90
2022-12-05T01:32:47.997Z,3.25
2022-12-05T01:35:35.573Z,3.00
2022-12-05T01:38:21.144Z,3.00
2022-12-05T01:41:09.577Z,2.97
2022-12-05T01:44:00.105Z,2.40
2022-12-05T01:46:52.020Z,2.63
2022-12-05T01:49:41.455Z,2.58
2022-12-05T01:52:29.788Z,2.35
2022-12-05T01:55:17.790Z,2.45
2022-12-05T01:58:05.409Z,2.47
2022-12-05T02:00:51.752Z,2.15
2022-12-05T02:03:38.309Z,2.65
2022-12-05T02:06:26.046Z,2.15
2022-12-05T02:09:11.616Z,3.30
2022-12-05T02:12:01.038Z,2.55
2022-12-05T02:15:20.121Z,2.60
2022-12-05T02:18:38.995Z,2.25
2022-12-05T02:21:27.522Z,2.70
2022-12-05T02:24:53.924Z,2.17
2022-12-05T02:28:03.945Z,3.00
2022-12-05T02:30:56.750Z,2.85
2022-12-05T02:36:57.130Z,2.75
2022-12-05T02:40:03.193Z,2.30
2022-12-05T02:43:00.313Z,3.15
2022-12-05T02:45:51.146Z,2.55
2022-12-05T02:48:37.562Z,2.90
2022-12-05T02:51:27.691Z,2.40
2022-12-05T02:54:19.130Z,2.50
2022-12-05T02:57:05.886Z,2.65
2022-12-05T02:59:51.826Z,2.65
2022-12-05T03:02:40.722Z,2.80
2022-12-05T03:05:39.117Z,2.90
2022-12-05T03:08:33.375Z,3.15
2022-12-05T03:11:19.296Z,3.22
2022-12-05T03:14:10.419Z,3.38
2022-12-05T03:17:02.095Z,3.70
2022-12-05T03:20:18.861Z,3.85
2022-12-05T03:23:39.998Z,3.03
2022-12-05T03:26:44.246Z,3.67
2022-12-05T03:29:48.387Z,3.50
2022-12-05T03:32:43.109Z,3.58
2022-12-05T03:35:43.450Z,4.05
2022-12-05T03:38:35.117Z,2.88
2022-12-05T03:41:32.942Z,3.47
2022-12-05T03:44:29.926Z,3.80
2022-12-05T03:47:38.303Z,3.60
2022-12-05T03:50:29.624Z,3.70
2022-12-05T03:53:29.618Z,2.92
2022-12-05T03:56:20.061Z,3.58
2022-12-05T03:59:19.111Z,3.58
2022-12-05T04:02:10.276Z,2.95
2022-12-05T04:05:07.131Z,4.00
2022-12-05T04:07:59.216Z,3.55
2022-12-05T04:10:51.535Z,3.70
2022-12-05T04:13:44.477Z,3.58
2022-12-05T04:17:02.027Z,4.05
2022-12-05T04:20:13.982Z,2.95
2022-12-05T04:23:00.933Z,2.80
2022-12-05T04:26:01.946Z,2.75
2022-12-05T04:28:50.419Z,3.10
2022-12-05T04:31:43.109Z,2.58
2022-12-05T04:34:31.625Z,3.13
2022-12-05T04:37:23.800Z,3.10
2022-12-05T04:40:19.943Z,3.30
2022-12-05T04:43:06.994Z,3.42
2022-12-05T04:45:54.767Z,3.42
2022-12-05T04:48:42.685Z,3.22
2022-12-05T04:51:34.269Z,3.38
2022-12-05T04:54:29.504Z,3.25
2022-12-05T04:57:24.331Z,3.10
2022-12-05T05:00:10.976Z,3.08
2022-12-05T05:03:05.545Z,3.28
2022-12-05T05:05:54.519Z,2.70
2022-12-05T05:08:49.194Z,2.35
2022-12-05T05:11:35.782Z,2.45
2022-12-05T05:14:21.006Z,3.33
2022-12-05T05:17:06.433Z,2.60
2022-12-05T05:19:51.684Z,2.95
2022-12-05T05:22:37.274Z,3.30
2022-12-05T05:25:23.557Z,3.03
2022-12-05T05:28:08.978Z,2.72
2022-12-05T05:30:54.235Z,3.00
2022-12-05T05:33:40.517Z,2.72
2022-12-05T05:36:27.507Z,2.80
2022-12-05T05:39:15.545Z,2.85
2022-12-05T05:42:01.303Z,2.45
2022-12-05T05:44:46.720Z,2.83
2022-12-05T05:47:31.960Z,2.65
2022-12-05T05:50:21.388Z,3.10
2022-12-05T05:53:07.559Z,2.53
2022-12-05T05:55:53.092Z,2.72
2022-12-05T05:58:39.406Z,1.98
2022-12-05T06:01:25.076Z,1.80
2022-12-05T06:04:10.859Z,2.38
2022-12-05T06:06:56.525Z,2.70
2022-12-05T06:09:42.004Z,2.20
2022-12-05T06:12:27.380Z,2.80
2022-12-05T06:15:13.322Z,2.88
2022-12-05T06:17:58.978Z,2.40
2022-12-05T06:20:55.855Z,2.40
2022-12-05T06:23:41.381Z,2.55
2022-12-05T06:26:26.801Z,2.00
2022-12-05T06:29:12.082Z,1.90
2022-12-05T06:31:57.487Z,2.40
2022-12-05T06:34:42.964Z,2.78
2022-12-05T06:37:28.396Z,2.65
2022-12-05T06:40:14.130Z,1.55
2022-12-05T06:42:59.537Z,1.95
2022-12-05T06:45:44.893Z,1.60
2022-12-05T06:48:30.536Z,1.23
2022-12-05T06:51:17.265Z,1.95
2022-12-05T06:54:03.261Z,1.38
2022-12-05T06:56:48.685Z,1.90
2022-12-05T06:59:34.003Z,2.45
2022-12-05T07:02:19.335Z,1.85
2022-12-05T07:05:04.875Z,1.88
2022-12-05T07:07:50.609Z,1.30
2022-12-05T07:10:36.194Z,1.23
2022-12-05T07:13:21.899Z,1.27
2022-12-05T07:16:07.931Z,1.30
2022-12-05T07:18:53.224Z,2.05
2022-12-05T07:21:38.849Z,1.27
2022-12-05T07:24:24.290Z,1.33
2022-12-05T07:27:09.654Z,0.88
2022-12-05T07:29:56.182Z,1.67
2022-12-05T07:32:41.716Z,1.20
2022-12-05T07:35:27.099Z,1.67
2022-12-05T07:38:12.670Z,1.35
2022-12-05T07:40:58.180Z,1.83
2022-12-05T07:43:43.569Z,3.40
2022-12-05T07:46:29.218Z,1.98
2022-12-05T07:49:15.990Z,1.58
2022-12-05T07:52:01.672Z,2.20
2022-12-05T07:54:46.986Z,1.42
2022-12-05T07:57:32.544Z,1.80
2022-12-05T08:00:18.645Z,1.48
2022-12-05T08:03:04.375Z,1.60
2022-12-05T08:05:50.747Z,2.05
2022-12-05T08:08:37.016Z,2.20
2022-12-05T08:11:36.694Z,1.75
2022-12-05T08:14:22.262Z,2.15
2022-12-05T08:17:07.620Z,1.42
2022-12-05T08:19:52.978Z,1.65
2022-12-05T08:22:38.367Z,1.02
2022-12-05T08:25:23.796Z,1.00
2022-12-05T08:28:09.273Z,1.45
2022-12-05T08:30:54.791Z,1.45
2022-12-05T08:33:41.915Z,1.05
2022-12-05T08:36:31.441Z,1.08
2022-12-05T08:39:18.947Z,0.82
2022-12-05T08:42:04.394Z,1.05
2022-12-05T08:44:51.168Z,1.75
2022-12-05T08:47:36.836Z,1.23
2022-12-05T08:50:22.671Z,0.98
2022-12-05T08:53:08.389Z,0.98
2022-12-05T08:55:53.791Z,0.80
2022-12-05T08:58:39.737Z,0.85
2022-12-05T09:01:32.030Z,0.70
2022-12-05T09:04:17.939Z,1.48
2022-12-05T09:07:03.857Z,0.80
2022-12-05T09:09:49.297Z,1.10
2022-12-05T09:12:39.538Z,0.90
2022-12-05T09:15:25.008Z,1.20
2022-12-05T09:18:10.589Z,1.08
2022-12-05T09:20:56.311Z,0.98
2022-12-05T09:23:41.888Z,1.15
2022-12-05T09:26:29.945Z,0.88
2022-12-05T09:29:17.717Z,1.15
2022-12-05T09:32:03.939Z,0.95
2022-12-05T09:34:49.604Z,1.10
2022-12-05T09:37:39.650Z,1.05
2022-12-05T09:40:25.488Z,1.27
2022-12-05T09:43:37.046Z,1.10
2022-12-05T09:46:54.993Z,1.35
2022-12-05T09:49:50.079Z,0.95
2022-12-05T09:52:39.798Z,1.35
2022-12-05T09:55:28.242Z,1.30
2022-12-05T09:58:47.363Z,1.30
2022-12-05T10:02:24.952Z,1.23
2022-12-05T10:05:21.296Z,1.38
2022-12-05T10:08:26.793Z,1.23
2022-12-05T10:11:26.525Z,1.23
2022-12-05T10:14:42.359Z,1.08
2022-12-05T10:17:33.896Z,0.77
2022-12-05T10:20:29.988Z,0.70
2022-12-05T10:23:49.351Z,1.00
2022-12-05T10:26:34.615Z,0.95
2022-12-05T10:29:38.394Z,0.80
2022-12-05T10:32:43.915Z,1.00
2022-12-05T10:35:37.712Z,1.20
2022-12-05T10:38:31.296Z,1.05
2022-12-05T10:41:17.924Z,0.93
2022-12-05T10:44:03.930Z,0.88
2022-12-05T10:46:49.510Z,1.20
2022-12-05T10:49:38.228Z,1.38
2022-12-05T10:52:24.465Z,1.10
2022-12-05T10:55:16.541Z,1.30
2022-12-05T10:58:18.083Z,1.08
2022-12-05T11:01:15.924Z,0.70
2022-12-05T11:04:13.494Z,0.93
2022-12-05T11:07:05.143Z,1.02
2022-12-05T11:09:50.601Z,0.73
2022-12-05T11:12:39.113Z,1.10
2022-12-05T11:15:30.185Z,1.00
2022-12-05T11:18:35.175Z,0.82
2022-12-05T11:21:20.997Z,0.55
2022-12-05T11:24:29.077Z,0.60
2022-12-05T11:27:17.521Z,0.63
2022-12-05T11:30:12.297Z,0.70
2022-12-05T11:33:19.744Z,0.90
2022-12-05T11:36:23.791Z,1.00
2022-12-05T11:39:12.936Z,0.85
2022-12-05T11:42:21.285Z,1.00
2022-12-05T11:45:29.348Z,1.30
2022-12-05T11:48:34.855Z,0.95
2022-12-05T11:51:52.676Z,0.85
2022-12-05T11:55:11.571Z,0.65
2022-12-05T11:58:25.543Z,0.90
2022-12-05T12:01:35.390Z,0.70
2022-12-05T12:04:42.451Z,0.98
2022-12-05T12:07:27.754Z,0.77
2022-12-05T12:10:22.808Z,0.70
2022-12-05T12:13:26.730Z,1.25
2022-12-05T12:16:23.566Z,1.00
2022-12-05T12:19:33.730Z,0.85
2022-12-05T12:22:31.314Z,1.23
2022-12-05T12:25:31.880Z,0.77
2022-12-05T12:28:32.375Z,0.80
2022-12-05T12:31:36.805Z,0.85
2022-12-05T12:34:41.347Z,0.93
2022-12-05T12:38:00.855Z,0.80
2022-12-05T12:41:11.482Z,1.13
2022-12-05T12:44:23.954Z,1.63
2022-12-05T12:47:19.254Z,1.73
2022-12-05T12:50:36.595Z,1.77
2022-12-05T12:53:48.817Z,1.05
2022-12-05T12:56:58.843Z,1.10
2022-12-05T13:00:10.921Z,1.20
2022-12-05T13:03:29.759Z,0.98
2022-12-05T13:06:28.771Z,1.17
2022-12-05T13:09:17.420Z,1.10
2022-12-05T13:12:11.422Z,1.13
2022-12-05T13:15:04.612Z,1.13
2022-12-05T13:17:51.868Z,1.20
2022-12-05T13:20:37.743Z,1.23
2022-12-05T13:23:27.301Z,0.88
2022-12-05T13:26:13.636Z,1.63
2022-12-05T13:29:04.693Z,1.15
2022-12-05T13:31:50.584Z,1.20
2022-12-05T13:34:46.202Z,0.93
2022-12-05T13:37:51.451Z,1.15
2022-12-05T13:41:09.091Z,1.52
2022-12-05T13:44:05.945Z,1.52
2022-12-05T13:46:52.478Z,1.10
2022-12-05T13:49:52.014Z,0.90
2022-12-05T13:52:49.395Z,1.13
2022-12-05T13:56:02.213Z,0.80
2022-12-05T13:58:53.177Z,1.30
2022-12-05T14:01:53.885Z,1.10
2022-12-05T14:04:50.502Z,1.13
2022-12-05T14:07:40.447Z,1.30
2022-12-05T14:10:28.946Z,1.33
2022-12-05T14:13:17.717Z,2.17
2022-12-05T14:16:23.566Z,1.65
2022-12-05T14:20:00.339Z,1.33
2022-12-05T14:22:46.078Z,1.30
2022-12-05T14:25:31.633Z,1.40
2022-12-05T14:28:52.487Z,1.20
2022-12-05T14:32:07.268Z,1.02
2022-12-05T14:35:00.859Z,1.25
2022-12-05T14:37:58.930Z,1.35
2022-12-05T14:40:46.804Z,1.33
2022-12-05T14:43:34.441Z,1.38
2022-12-05T14:46:32.223Z,1.85
2022-12-05T14:49:51.950Z,2.00
2022-12-05T14:52:41.054Z,1.60
2022-12-05T14:55:27.252Z,1.45
2022-12-05T14:58:45.092Z,1.85
2022-12-05T15:01:42.686Z,1.30
2022-12-05T15:04:54.166Z,1.40
2022-12-05T15:07:40.735Z,1.63
2022-12-05T15:10:32.785Z,1.75
2022-12-05T15:13:30.768Z,2.35
2022-12-05T15:16:22.588Z,1.58
2022-12-05T15:19:17.705Z,1.77
2022-12-05T15:22:07.833Z,2.03
2022-12-05T15:24:53.290Z,1.65
2022-12-05T15:27:38.586Z,1.70
2022-12-05T15:30:24.102Z,1.60
2022-12-05T15:33:13.192Z,2.45
2022-12-05T15:35:59.896Z,1.38
2022-12-05T15:38:45.305Z,1.58
2022-12-05T15:41:31.204Z,2.40
2022-12-05T15:44:16.625Z,2.83
2022-12-05T15:47:01.964Z,3.20
2022-12-05T15:49:47.465Z,3.97
2022-12-05T15:52:45.195Z,2.38
2022-12-05T15:55:38.264Z,2.28
2022-12-05T15:58:27.208Z,2.80
2022-12-05T16:01:16.038Z,2.28
2022-12-05T16:04:13.641Z,2.00
2022-12-05T16:07:06.589Z,1.38
2022-12-05T16:09:59.815Z,1.60
2022-12-05T16:12:45.606Z,2.83
2022-12-05T16:15:31.188Z,2.83
2022-12-05T16:18:27.068Z,2.33
2022-12-05T16:21:40.937Z,2.67
2022-12-05T16:24:42.361Z,3.30
2022-12-05T16:27:36.135Z,2.55
2022-12-05T16:30:23.238Z,1.95
2022-12-05T16:33:16.820Z,1.70
2022-12-05T16:36:13.258Z,2.47
2022-12-05T16:39:07.129Z,3.10
2022-12-05T16:41:53.126Z,2.70
2022-12-05T16:44:47.843Z,2.88
2022-12-05T16:47:58.660Z,2.92
2022-12-05T16:50:44.506Z,3.75
2022-12-05T16:53:32.943Z,3.60
2022-12-05T16:56:32.554Z,3.28
2022-12-05T16:59:30.116Z,4.35
2022-12-05T17:02:18.132Z,3.42
2022-12-05T17:05:13.169Z,3.75
2022-12-05T17:07:58.721Z,3.25
2022-12-05T17:10:44.709Z,3.25
2022-12-05T17:13:32.682Z,3.47
2022-12-05T17:16:20.593Z,3.97
2022-12-05T17:19:08.047Z,3.75
2022-12-05T17:21:53.730Z,3.00
2022-12-05T17:24:39.432Z,2.80
2022-12-05T17:27:24.617Z,2.10
2022-12-05T17:30:10.843Z,1.95
2022-12-05T17:32:56.445Z,1.73
2022-12-05T17:35:41.965Z,2.40
2022-12-05T17:38:27.582Z,2.13
2022-12-05T17:41:23.497Z,2.42
2022-12-05T17:44:13.224Z,2.83
2022-12-05T17:47:03.006Z,2.95
2022-12-05T17:49:51.936Z,2.63
2022-12-05T17:52:37.437Z,2.63
2022-12-05T17:55:31.093Z,2.70
2022-12-05T17:58:17.016Z,2.58
2022-12-05T18:01:02.793Z,2.30
2022-12-05T18:03:49.040Z,3.33
2022-12-05T18:06:34.704Z,3.00
2022-12-05T18:09:20.026Z,2.40
2022-12-05T18:12:05.997Z,1.83
2022-12-05T18:14:51.402Z,1.55
2022-12-05T18:17:36.927Z,1.90
2022-12-05T18:20:22.749Z,2.92
2022-12-05T18:23:08.065Z,2.97
2022-12-05T18:26:00.276Z,1.98
2022-12-05T18:28:47.132Z,2.70
2022-12-05T18:31:32.968Z,2.70
2022-12-05T18:34:18.828Z,2.58
2022-12-05T18:37:04.290Z,2.50
2022-12-05T18:39:49.523Z,3.05
2022-12-05T18:42:35.111Z,4.13
2022-12-05T18:45:21.581Z,3.47
2022-12-05T18:48:31.081Z,3.05
2022-12-05T18:51:17.969Z,2.50
2022-12-05T18:54:04.685Z,2.65
2022-12-05T18:56:52.837Z,2.55
2022-12-05T18:59:38.127Z,2.72
2022-12-05T19:02:24.728Z,2.95
2022-12-05T19:05:10.345Z,2.72
2022-12-05T19:07:55.842Z,2.03
2022-12-05T19:10:41.527Z,1.92
2022-12-05T19:13:26.782Z,2.00
2022-12-05T19:16:19.346Z,2.25
2022-12-05T19:19:08.028Z,2.25
2022-12-05T19:21:53.701Z,2.28
2022-12-05T19:24:39.319Z,2.00
2022-12-05T19:27:24.642Z,2.78
2022-12-05T19:30:10.801Z,2.65
2022-12-05T19:32:56.290Z,2.45
2022-12-05T19:35:41.734Z,2.88
2022-12-05T19:38:31.737Z,2.97
2022-12-05T19:41:20.206Z,2.63
2022-12-05T19:44:06.416Z,2.28
2022-12-05T19:46:53.178Z,2.72
2022-12-05T19:49:39.008Z,3.10
2022-12-05T19:52:24.415Z,2.30
2022-12-05T19:55:10.088Z,1.80
2022-12-05T19:57:55.507Z,2.58
2022-12-05T20:00:41.447Z,4.40
2022-12-05T20:03:26.894Z,2.92
2022-12-05T20:06:12.216Z,4.20
2022-12-05T20:08:59.368Z,3.13
2022-12-05T20:11:52.484Z,3.22
2022-12-05T20:14:40.081Z,2.83
2022-12-05T20:17:25.538Z,2.63
2022-12-05T20:20:11.693Z,2.72
2022-12-05T20:22:57.044Z,3.10
2022-12-05T20:25:42.337Z,2.28
2022-12-05T20:28:29.283Z,2.42
2022-12-05T20:31:21.404Z,2.85
2022-12-05T20:36:52.857Z,2.90
2022-12-05T20:39:38.590Z,2.60
2022-12-05T20:42:24.302Z,2.95
2022-12-05T20:45:10.571Z,3.20
2022-12-05T20:47:55.916Z,3.08
2022-12-05T20:50:41.617Z,3.75
2022-12-05T20:53:28.205Z,3.83
2022-12-05T20:56:19.212Z,3.00
2022-12-05T20:59:06.448Z,2.80
2022-12-05T21:01:52.277Z,2.10
2022-12-05T21:04:40.998Z,2.33
2022-12-05T21:07:27.762Z,2.08
2022-12-05T21:10:13.240Z,1.85
2022-12-05T21:12:58.716Z,3.17
2022-12-05T21:15:44.192Z,2.33
2022-12-05T21:18:29.959Z,2.50
2022-12-05T21:21:21.246Z,2.08
2022-12-05T21:24:07.210Z,2.20
2022-12-05T21:26:52.556Z,2.70
2022-12-05T21:29:37.918Z,3.03
2022-12-05T21:32:23.342Z,2.63
2022-12-05T21:35:09.599Z,2.63
2022-12-05T21:37:55.106Z,2.60
2022-12-05T21:40:42.935Z,2.70
2022-12-05T21:43:28.534Z,2.55
2022-12-05T21:46:14.185Z,2.60
2022-12-05T21:48:59.938Z,2.25
2022-12-05T21:51:45.331Z,2.60
2022-12-05T21:54:30.741Z,2.25
2022-12-05T21:57:16.311Z,2.30
2022-12-05T22:00:01.726Z,2.30
2022-12-05T22:02:50.318Z,1.63
2022-12-05T22:05:36.001Z,2.13
2022-12-05T22:08:21.352Z,2.10
2022-12-05T22:11:15.744Z,1.88
2022-12-05T22:14:01.367Z,1.45
2022-12-05T22:16:46.824Z,1.98
2022-12-05T22:19:32.223Z,1.60
2022-12-05T22:22:18.009Z,1.92
2022-12-05T22:25:04.383Z,2.10
2022-12-05T22:27:49.850Z,2.50
2022-12-05T22:30:35.234Z,2.40
2022-12-05T22:33:20.439Z,2.20
2022-12-05T22:36:08.251Z,1.77
2022-12-05T22:38:53.775Z,2.05
2022-12-05T22:41:38.999Z,1.63
2022-12-05T22:44:24.802Z,1.77
2022-12-05T22:47:10.210Z,1.88
2022-12-05T22:49:56.092Z,1.70
2022-12-05T22:52:41.941Z,1.73
2022-12-05T22:55:27.417Z,1.75
2022-12-05T22:58:13.053Z,1.35
2022-12-05T23:01:08.037Z,1.58
2022-12-05T23:04:09.883Z,1.67
2022-12-05T23:06:55.431Z,1.73
2022-12-05T23:09:40.998Z,2.40
2022-12-05T23:12:26.559Z,1.60
2022-12-05T23:15:13.431Z,2.28
2022-12-05T23:17:59.437Z,2.50
2022-12-05T23:20:45.087Z,1.50
2022-12-05T23:23:30.826Z,2.00
2022-12-05T23:26:18.303Z,1.70
2022-12-05T23:29:04.666Z,1.30
2022-12-05T23:31:50.628Z,1.55
2022-12-05T23:34:36.206Z,1.95
2022-12-05T23:37:22.010Z,1.42
2022-12-05T23:40:08.566Z,1.48
2022-12-05T23:42:54.251Z,1.25
2022-12-05T23:45:40.025Z,1.38
2022-12-05T23:48:26.117Z,1.08
2022-12-05T23:51:18.565Z,1.65
2022-12-05T23:54:04.261Z,1.30
2022-12-05T23:56:49.992Z,1.05
2022-12-05T23:59:35.772Z,1.73
